Time;durP1;ratioP1;P1;durP2;ratioP2;P2;SDS_P1;SDS_P2;PMS_P1;PMS_P2;Temp;Humidity;BMP_temperature;BMP_pressure;BME280_temperature;BME280_humidity;BME280_pressure;Samples;Min_cycle;Max_cycle;Signal;HPM_P1;HPM_P2
2023/10/18 00:01:26;;;;;;;23.20;8.65;;;7.50;99.90;;;;;;5077798;28;20076;-88
2023/10/18 00:03:54;;;;;;;18.65;7.60;;;7.50;99.90;;;;;;5077800;28;20027;-88
2023/10/18 00:06:22;;;;;;;18.17;8.73;;;7.50;99.90;;;;;;5077851;28;20044;-88
2023/10/18 00:08:48;;;;;;;15.10;7.57;;;7.50;99.90;;;;;;5094329;28;20051;-88
2023/10/18 00:11:18;;;;;;;17.00;7.43;;;7.50;99.90;;;;;;5077345;28;20039;-88
2023/10/18 00:13:49;;;;;;;16.70;8.43;;;7.40;99.90;;;;;;5078187;28;20051;-88
2023/10/18 00:16:16;;;;;;;18.02;8.65;;;7.40;99.90;;;;;;5077451;28;20044;-88
2023/10/18 00:18:42;;;;;;;22.00;10.10;;;7.40;99.90;;;;;;5077689;28;20136;-88
2023/10/18 00:21:08;;;;;;;20.63;9.38;;;7.40;99.90;;;;;;5077581;28;20509;-88
2023/10/18 00:23:34;;;;;;;23.02;10.98;;;7.40;99.90;;;;;;5077119;28;20483;-88
2023/10/18 00:26:09;;;;;;;18.42;8.23;;;7.40;99.90;;;;;;5094140;28;20067;-88
2023/10/18 00:28:39;;;;;;;18.27;9.23;;;7.40;99.90;;;;;;5077394;28;20035;-88
2023/10/18 00:31:20;;;;;;;19.92;7.95;;;7.40;99.90;;;;;;5077567;28;20044;-88
2023/10/18 00:33:49;;;;;;;23.52;9.60;;;7.40;99.90;;;;;;5094511;28;20560;-88
2023/10/18 00:36:18;;;;;;;16.38;7.68;;;7.40;99.90;;;;;;5102804;28;20122;-88
2023/10/18 00:38:44;;;;;;;17.73;7.90;;;7.40;99.90;;;;;;5077087;28;20093;-88
2023/10/18 00:41:15;;;;;;;17.50;8.45;;;7.40;99.90;;;;;;5093957;28;20036;-88
2023/10/18 00:43:44;;;;;;;18.55;8.07;;;7.30;99.90;;;;;;5096519;28;20526;-88
2023/10/18 00:46:10;;;;;;;14.63;6.72;;;7.30;99.90;;;;;;5081313;28;20042;-88
2023/10/18 00:48:36;;;;;;;20.10;8.35;;;7.30;99.90;;;;;;5081141;28;20040;-89
2023/10/18 00:51:03;;;;;;;22.27;9.75;;;7.30;99.90;;;;;;5080969;28;20413;-89
2023/10/18 00:53:33;;;;;;;18.85;8.10;;;7.30;99.90;;;;;;5089800;28;20047;-89
2023/10/18 00:55:59;;;;;;;21.08;10.23;;;7.30;99.90;;;;;;5081221;28;20047;-89
2023/10/18 00:58:29;;;;;;;23.13;10.25;;;7.30;99.90;;;;;;5080786;28;20550;-89
2023/10/18 01:00:56;;;;;;;23.35;9.40;;;7.30;99.90;;;;;;5081141;28;20441;-88
2023/10/18 01:03:29;;;;;;;19.70;9.48;;;7.30;99.90;;;;;;5080777;28;20109;-88
2023/10/18 01:06:00;;;;;;;24.65;10.85;;;7.20;99.90;;;;;;5080904;28;20035;-89
2023/10/18 01:08:29;;;;;;;19.85;8.43;;;7.30;99.90;;;;;;5080048;28;20043;-89
2023/10/18 01:11:04;;;;;;;18.38;8.82;;;7.20;99.90;;;;;;5097698;28;20405;-89
2023/10/18 01:13:36;;;;;;;19.73;9.23;;;7.30;99.90;;;;;;5097609;28;20042;-89
2023/10/18 01:16:06;;;;;;;20.70;9.55;;;7.20;99.90;;;;;;5097538;28;20050;-88
2023/10/18 01:18:31;;;;;;;16.80;7.78;;;7.20;99.90;;;;;;5097285;28;20043;-88
2023/10/18 01:20:57;;;;;;;23.75;11.25;;;7.20;99.90;;;;;;5096876;28;20035;-88
2023/10/18 01:23:23;;;;;;;21.42;9.50;;;7.20;99.90;;;;;;5080076;28;20510;-88
2023/10/18 01:25:49;;;;;;;25.13;11.23;;;7.20;99.90;;;;;;5097580;28;20062;-88
2023/10/18 01:28:14;;;;;;;18.80;9.50;;;7.20;99.90;;;;;;5080591;28;20039;-89
2023/10/18 01:30:40;;;;;;;22.65;10.65;;;7.20;99.90;;;;;;5080463;28;20521;-89
2023/10/18 01:33:10;;;;;;;20.38;10.15;;;7.20;99.90;;;;;;5080564;28;20045;-88
2023/10/18 01:35:39;;;;;;;20.35;11.05;;;7.20;99.90;;;;;;5097310;28;20050;-89
2023/10/18 01:38:13;;;;;;;23.45;11.57;;;7.20;99.90;;;;;;5105248;28;20046;-88
2023/10/18 01:40:47;;;;;;;18.33;9.18;;;7.20;99.90;;;;;;5080444;28;20031;-88
2023/10/18 01:43:12;;;;;;;25.75;10.38;;;7.20;99.90;;;;;;5081282;28;20036;-89
2023/10/18 01:45:38;;;;;;;20.95;10.13;;;7.20;99.90;;;;;;5097006;28;20032;-89
2023/10/18 01:48:09;;;;;;;22.65;10.02;;;7.20;99.90;;;;;;5079866;28;20490;-89
2023/10/18 01:50:37;;;;;;;20.00;9.90;;;7.10;99.90;;;;;;5079725;28;20031;-89
2023/10/18 01:53:04;;;;;;;20.27;9.23;;;7.10;99.90;;;;;;5079495;28;20043;-88
2023/10/18 01:55:31;;;;;;;22.17;11.75;;;7.10;99.90;;;;;;5083322;28;20092;-88
2023/10/18 01:57:58;;;;;;;24.27;10.88;;;7.10;99.90;;;;;;5080178;28;20035;-88
2023/10/18 02:00:34;;;;;;;22.08;9.23;;;7.10;99.90;;;;;;5079862;28;20043;-88
2023/10/18 02:03:01;;;;;;;22.40;10.88;;;7.10;99.90;;;;;;5097071;28;20039;-88
2023/10/18 02:05:27;;;;;;;21.75;10.23;;;7.10;99.90;;;;;;5080917;28;20051;-88
2023/10/18 02:07:55;;;;;;;26.15;11.00;;;7.10;99.90;;;;;;5086142;28;20039;-88
2023/10/18 02:10:21;;;;;;;22.00;10.27;;;7.10;99.90;;;;;;5101938;28;20035;-88
2023/10/18 02:12:47;;;;;;;22.27;11.70;;;7.10;99.90;;;;;;5079800;28;20164;-89
2023/10/18 02:15:14;;;;;;;19.80;9.27;;;7.10;99.90;;;;;;5096786;28;20142;-88
2023/10/18 02:17:45;;;;;;;25.88;10.75;;;7.10;99.90;;;;;;5096040;28;20081;-88
2023/10/18 02:20:25;;;;;;;24.77;10.15;;;7.10;99.90;;;;;;5079179;28;20499;-88
2023/10/18 02:22:51;;;;;;;20.60;9.82;;;7.10;99.90;;;;;;5079386;28;20115;-88
2023/10/18 02:25:29;;;;;;;21.85;10.02;;;7.10;99.90;;;;;;5096328;28;20119;-88
2023/10/18 02:27:55;;;;;;;22.73;10.02;;;7.10;99.90;;;;;;5096379;28;20035;-88
2023/10/18 02:30:22;;;;;;;24.60;10.85;;;7.10;99.90;;;;;;5096118;28;20058;-88
2023/10/18 02:32:48;;;;;;;20.67;9.85;;;7.10;99.90;;;;;;5095973;28;20043;-89
2023/10/18 02:35:16;;;;;;;22.95;11.73;;;7.10;99.90;;;;;;5096343;28;20040;-88
2023/10/18 02:37:43;;;;;;;23.15;11.57;;;7.10;99.90;;;;;;5096143;28;20088;-88
2023/10/18 02:40:09;;;;;;;22.80;10.45;;;7.10;99.90;;;;;;5095722;28;20510;-88
2023/10/18 02:42:36;;;;;;;20.88;10.73;;;7.10;99.90;;;;;;5096113;28;20046;-89
2023/10/18 02:45:08;;;;;;;24.02;11.25;;;7.10;99.90;;;;;;5095815;28;20156;-89
2023/10/18 02:47:37;;;;;;;19.48;9.02;;;7.10;99.90;;;;;;5081065;28;20058;-88
2023/10/18 02:50:03;;;;;;;23.73;12.30;;;7.10;99.90;;;;;;5098310;28;20519;-88
2023/10/18 02:52:30;;;;;;;20.80;11.48;;;7.10;99.90;;;;;;5078955;28;20432;-89
2023/10/18 02:54:57;;;;;;;22.05;11.82;;;7.10;99.90;;;;;;5094869;28;20078;-89
2023/10/18 02:57:24;;;;;;;23.17;10.77;;;7.10;99.90;;;;;;5094289;28;20446;-88
2023/10/18 02:59:50;;;;;;;20.15;9.70;;;7.10;99.90;;;;;;5094246;28;20039;-87
2023/10/18 03:02:15;;;;;;;19.27;10.15;;;7.10;99.90;;;;;;5094149;28;20036;-86
2023/10/18 03:04:47;;;;;;;22.92;12.45;;;7.10;99.90;;;;;;5077547;28;20116;-89
2023/10/18 03:07:13;;;;;;;19.58;9.73;;;7.10;99.90;;;;;;5093739;28;20063;-88
2023/10/18 03:09:48;;;;;;;18.80;8.13;;;7.00;99.90;;;;;;5078130;28;20150;-88
2023/10/18 03:12:13;;;;;;;21.90;8.98;;;7.00;99.90;;;;;;5095613;28;20410;-88
2023/10/18 03:14:55;;;;;;;23.27;11.35;;;7.00;99.90;;;;;;5080727;28;20035;-88
2023/10/18 03:19:50;;;;;;;17.27;8.52;;;7.10;99.90;;;;;;5094739;28;20529;-88
2023/10/18 03:22:20;;;;;;;22.25;10.75;;;7.00;99.90;;;;;;5077930;28;20031;-88
2023/10/18 03:24:58;;;;;;;22.70;11.05;;;7.00;99.90;;;;;;5095496;28;20046;-88
2023/10/18 03:27:41;;;;;;;24.92;11.25;;;7.00;99.90;;;;;;5078048;28;20039;-88
2023/10/18 03:30:17;;;;;;;19.52;8.90;;;7.00;99.90;;;;;;5077874;28;20079;-88
2023/10/18 03:32:43;;;;;;;19.63;9.60;;;7.00;99.90;;;;;;5077722;28;20036;-88
2023/10/18 03:35:09;;;;;;;19.73;9.10;;;7.00;99.90;;;;;;5078550;28;20031;-88
2023/10/18 03:37:39;;;;;;;23.27;10.80;;;7.00;99.90;;;;;;5094553;28;20502;-87
2023/10/18 03:40:24;;;;;;;18.83;9.02;;;7.00;99.90;;;;;;5094356;28;20035;-88
2023/10/18 03:42:51;;;;;;;19.20;9.20;;;7.00;99.90;;;;;;5094842;28;20032;-88
2023/10/18 03:45:33;;;;;;;24.10;10.20;;;7.00;99.90;;;;;;5095053;28;20563;-88
2023/10/18 03:47:58;;;;;;;19.85;8.95;;;7.00;99.90;;;;;;5077921;28;20036;-88
2023/10/18 03:50:40;;;;;;;20.83;9.98;;;7.00;99.90;;;;;;5077475;28;20146;-88
2023/10/18 03:53:11;;;;;;;20.38;9.55;;;7.00;99.90;;;;;;5102833;28;20449;-88
2023/10/18 03:55:42;;;;;;;20.15;10.88;;;7.00;99.90;;;;;;5078143;28;20471;-88
2023/10/18 03:58:08;;;;;;;20.08;9.73;;;7.00;99.90;;;;;;5093627;28;20035;-88
2023/10/18 04:00:54;;;;;;;20.55;9.60;;;6.90;99.90;;;;;;5076841;28;20179;-88
2023/10/18 04:03:20;;;;;;;20.10;9.65;;;6.90;99.90;;;;;;5094110;28;20107;-88
2023/10/18 04:05:49;;;;;;;14.65;6.85;;;6.90;99.90;;;;;;5094675;28;20039;-88
2023/10/18 04:08:16;;;;;;;18.02;9.52;;;6.90;99.90;;;;;;5077897;28;20039;-88
2023/10/18 04:10:42;;;;;;;18.42;9.02;;;6.90;99.90;;;;;;5093859;28;20047;-88
2023/10/18 04:13:12;;;;;;;18.05;8.93;;;6.90;99.90;;;;;;5094245;28;20414;-88
2023/10/18 04:15:39;;;;;;;17.70;8.43;;;6.90;99.90;;;;;;5100827;28;20039;-88
2023/10/18 04:20:34;;;;;;;18.52;9.65;;;6.90;99.90;;;;;;5095002;28;20043;-88
2023/10/18 04:23:12;;;;;;;19.02;8.80;;;6.90;99.90;;;;;;5078557;28;20039;-88
2023/10/18 04:25:38;;;;;;;20.00;10.63;;;6.90;99.90;;;;;;5100047;28;20044;-88
2023/10/18 04:28:04;;;;;;;19.10;8.10;;;6.90;99.90;;;;;;5077026;28;20115;-88
2023/10/18 04:30:30;;;;;;;25.23;11.25;;;6.90;99.90;;;;;;5077140;28;20085;-88
2023/10/18 04:33:00;;;;;;;20.60;9.02;;;6.90;99.90;;;;;;5077129;28;20047;-88
2023/10/18 04:35:29;;;;;;;16.13;8.57;;;6.90;99.90;;;;;;5093663;28;20123;-88
2023/10/18 04:37:55;;;;;;;21.90;11.63;;;6.90;99.90;;;;;;5076868;28;20569;-88
2023/10/18 04:40:22;;;;;;;18.17;8.82;;;6.90;99.90;;;;;;5077344;28;20059;-88
2023/10/18 04:42:54;;;;;;;23.65;10.57;;;6.90;99.90;;;;;;5093906;28;20035;-88
2023/10/18 04:45:23;;;;;;;18.75;9.73;;;6.80;99.90;;;;;;5094104;28;20044;-88
2023/10/18 04:47:58;;;;;;;17.25;8.25;;;6.90;99.90;;;;;;5076494;28;20126;-88
2023/10/18 04:50:33;;;;;;;19.40;9.23;;;6.80;99.90;;;;;;5077356;28;20126;-88
2023/10/18 04:53:00;;;;;;;17.95;10.02;;;6.80;99.90;;;;;;5076997;28;20062;-88
2023/10/18 04:55:26;;;;;;;20.67;9.70;;;6.80;99.90;;;;;;5094033;28;20043;-88
2023/10/18 04:57:53;;;;;;;19.75;9.75;;;6.80;99.90;;;;;;5077224;28;20126;-88
2023/10/18 05:00:34;;;;;;;22.20;11.23;;;6.80;99.90;;;;;;5076979;28;20047;-88
2023/10/18 05:03:06;;;;;;;20.20;10.18;;;6.80;99.90;;;;;;5093501;28;20036;-88
2023/10/18 05:05:37;;;;;;;19.77;9.73;;;6.80;99.90;;;;;;5094425;28;20040;-88
2023/10/18 05:08:04;;;;;;;19.33;8.93;;;6.80;99.90;;;;;;5094083;28;20047;-88
2023/10/18 05:10:29;;;;;;;15.98;8.80;;;6.80;99.90;;;;;;5093941;28;20028;-88
2023/10/18 05:15:29;;;;;;;20.92;11.20;;;6.80;99.90;;;;;;5102257;28;20096;-88
2023/10/18 05:18:04;;;;;;;20.02;10.05;;;6.80;99.90;;;;;;5081774;28;20035;-88
2023/10/18 05:20:47;;;;;;;20.77;10.38;;;6.80;99.90;;;;;;5078014;28;20043;-88
2023/10/18 05:23:23;;;;;;;21.08;9.25;;;6.80;99.90;;;;;;5076704;28;20047;-88
2023/10/18 05:25:57;;;;;;;16.65;9.32;;;6.70;99.90;;;;;;5076925;28;20490;-88
2023/10/18 05:28:28;;;;;;;14.68;7.75;;;6.80;99.90;;;;;;5093753;28;20514;-88
2023/10/18 05:44:01;;;;;;;17.15;8.93;;;6.70;99.90;;;;;;5101556;28;20044;-88
2023/10/18 05:46:31;;;;;;;24.63;10.13;;;6.80;99.90;;;;;;5080369;28;20109;-88
2023/10/18 05:48:58;;;;;;;19.95;11.05;;;6.80;99.90;;;;;;5097026;28;20114;-87
2023/10/18 05:53:59;;;;;;;19.83;9.90;;;6.80;99.90;;;;;;5096764;28;20043;-88
2023/10/18 05:56:32;;;;;;;15.82;8.07;;;6.70;99.90;;;;;;5079560;28;20063;-88
2023/10/18 06:01:43;;;;;;;20.77;9.13;;;6.70;99.90;;;;;;5096224;28;20047;-88
2023/10/18 06:04:09;;;;;;;21.52;10.25;;;6.70;99.90;;;;;;5086654;27;20032;-88
2023/10/18 06:06:37;;;;;;;21.38;10.50;;;6.70;99.90;;;;;;5107573;27;20027;-88
2023/10/18 06:09:10;;;;;;;18.15;10.27;;;6.70;99.90;;;;;;5106892;27;20047;-88
2023/10/18 06:11:37;;;;;;;18.45;10.45;;;6.70;99.90;;;;;;5086568;28;20036;-88
2023/10/18 06:14:05;;;;;;;19.05;9.65;;;6.70;99.90;;;;;;5079590;28;20055;-88
2023/10/18 06:16:34;;;;;;;18.83;10.00;;;6.70;99.90;;;;;;5091604;27;20039;-87
2023/10/18 06:19:06;;;;;;;16.77;9.68;;;6.70;99.90;;;;;;5105953;27;20482;-88
2023/10/18 06:21:36;;;;;;;20.38;9.98;;;6.70;99.90;;;;;;5106723;27;20054;-88
2023/10/18 06:24:10;;;;;;;23.35;9.60;;;6.70;99.90;;;;;;5104802;27;20039;-88
2023/10/18 06:26:38;;;;;;;20.60;9.60;;;6.70;99.90;;;;;;5116016;28;20079;-88
2023/10/18 06:29:22;;;;;;;16.10;8.15;;;6.70;99.90;;;;;;5108685;28;20043;-88
2023/10/18 06:31:49;;;;;;;17.52;9.55;;;6.70;99.90;;;;;;5102182;28;20042;-88
2023/10/18 06:34:18;;;;;;;18.48;8.75;;;6.70;99.90;;;;;;5080504;28;20114;-88
2023/10/18 06:36:52;;;;;;;23.00;9.38;;;6.70;99.90;;;;;;5114997;28;20081;-88
2023/10/18 06:39:25;;;;;;;16.85;8.30;;;6.70;99.90;;;;;;5082211;28;20116;-88
2023/10/18 06:41:52;;;;;;;;;;;6.70;99.90;;;;;;5085264;28;20043;-88
2023/10/18 06:44:18;;;;;;;16.13;7.30;;;6.70;99.90;;;;;;5093174;27;20454;-88
2023/10/18 06:46:47;;;;;;;15.43;7.65;;;6.80;99.90;;;;;;5088279;28;20043;-88
2023/10/18 06:49:13;;;;;;;15.00;8.25;;;6.80;99.90;;;;;;5092571;27;20035;-88
2023/10/18 06:51:43;;;;;;;14.55;7.88;;;6.80;99.90;;;;;;5090229;27;20065;-88
2023/10/18 06:54:13;;;;;;;18.55;9.80;;;6.80;99.90;;;;;;5088940;27;20095;-89
2023/10/18 06:56:39;;;;;;;18.90;8.25;;;6.80;99.90;;;;;;5107130;27;21508;-88
2023/10/18 06:59:07;;;;;;;19.25;10.15;;;6.90;99.90;;;;;;5109425;27;20553;-88
2023/10/18 07:01:34;;;;;;;21.63;9.88;;;6.80;99.90;;;;;;5107342;27;20161;-88
2023/10/18 07:04:04;;;;;;;20.40;9.38;;;6.90;99.90;;;;;;5092543;27;20054;-88
2023/10/18 07:06:29;;;;;;;16.05;8.02;;;6.90;99.90;;;;;;5108391;27;20052;-89
2023/10/18 07:08:56;;;;;;;17.00;8.18;;;6.90;99.90;;;;;;5091295;27;20039;-88
2023/10/18 07:11:23;;;;;;;19.23;8.82;;;6.90;99.90;;;;;;5091749;27;20069;-87
2023/10/18 07:13:54;;;;;;;17.25;8.65;;;6.90;99.90;;;;;;5090426;27;20042;-88
2023/10/18 07:16:38;;;;;;;18.23;9.52;;;7.00;99.90;;;;;;5089682;27;20040;-88
2023/10/18 07:19:21;;;;;;;16.65;9.35;;;7.00;99.90;;;;;;5084486;28;20043;-87
2023/10/18 07:21:47;;;;;;;19.25;8.15;;;7.00;99.90;;;;;;5098479;27;20043;-88
2023/10/18 07:24:13;;;;;;;20.85;9.38;;;7.00;99.90;;;;;;5103224;28;20425;-88
2023/10/18 07:26:39;;;;;;;17.23;8.73;;;7.00;99.90;;;;;;5103641;28;20515;-88
2023/10/18 07:29:08;;;;;;;17.48;8.38;;;7.10;99.90;;;;;;5095380;28;20043;-88
2023/10/18 07:31:38;;;;;;;16.48;8.52;;;7.10;99.90;;;;;;5079595;28;20089;-87
2023/10/18 07:34:17;;;;;;;18.90;8.00;;;7.10;99.90;;;;;;5078580;28;20075;-88
2023/10/18 07:36:47;;;;;;;19.08;8.45;;;7.20;99.90;;;;;;5085489;28;20048;-88
2023/10/18 07:39:16;;;;;;;15.88;7.90;;;7.20;99.90;;;;;;5077278;28;20047;-88
2023/10/18 07:41:46;;;;;;;16.67;8.18;;;7.20;99.90;;;;;;5080740;28;20032;-88
2023/10/18 07:44:12;;;;;;;15.98;8.30;;;7.20;99.90;;;;;;5079574;28;20042;-88
2023/10/18 07:46:41;;;;;;;17.65;9.48;;;7.30;99.90;;;;;;5094857;28;20043;-88
2023/10/18 07:49:14;;;;;;;17.50;8.60;;;7.30;99.90;;;;;;5103085;28;20494;-88
2023/10/18 07:51:48;;;;;;;15.48;7.63;;;7.40;99.90;;;;;;5077308;28;20071;-88
2023/10/18 07:54:20;;;;;;;15.50;7.28;;;7.40;99.90;;;;;;5077916;28;20043;-87
2023/10/18 07:56:49;;;;;;;14.60;6.68;;;7.40;99.90;;;;;;5086533;28;20040;-86
2023/10/18 07:59:28;;;;;;;15.18;7.43;;;7.50;99.90;;;;;;5077013;28;20490;-88
2023/10/18 08:02:12;;;;;;;17.08;8.32;;;7.50;99.90;;;;;;5094641;28;20548;-88
2023/10/18 08:04:40;;;;;;;16.17;8.57;;;7.50;99.90;;;;;;5103394;28;20039;-87
2023/10/18 08:07:10;;;;;;;17.88;8.73;;;7.60;99.90;;;;;;5094331;28;20122;-87
2023/10/18 08:09:39;;;;;;;14.77;7.28;;;7.70;99.90;;;;;;5094292;28;20118;-87
2023/10/18 08:12:06;;;;;;;14.23;7.68;;;7.70;99.90;;;;;;5094412;28;20506;-87
2023/10/18 08:14:33;;;;;;;11.95;5.65;;;7.70;99.90;;;;;;5077629;28;20042;-88
2023/10/18 08:17:08;;;;;;;13.85;6.47;;;7.70;99.90;;;;;;5094107;28;20077;-88
2023/10/18 08:19:43;;;;;;;15.73;8.25;;;7.70;99.90;;;;;;5077480;28;20039;-88
2023/10/18 08:24:37;;;;;;;16.38;8.32;;;7.80;99.90;;;;;;5094518;28;20062;-87
2023/10/18 08:27:10;;;;;;;16.60;8.07;;;7.90;99.90;;;;;;5094483;28;20075;-88
2023/10/18 08:29:37;;;;;;;22.70;8.05;;;7.90;99.90;;;;;;5101678;28;20791;-87
2023/10/18 08:32:14;;;;;;;16.42;7.90;;;8.00;99.90;;;;;;5085816;27;20486;-87
2023/10/18 08:34:40;;;;;;;16.60;7.78;;;8.00;99.90;;;;;;5122004;28;20045;-87
2023/10/18 08:37:06;;;;;;;15.77;7.93;;;8.10;99.90;;;;;;5078420;28;20035;-87
2023/10/18 08:39:32;;;;;;;14.80;7.40;;;8.10;99.90;;;;;;5076408;28;20036;-87
2023/10/18 08:42:10;;;;;;;14.50;7.68;;;8.20;99.90;;;;;;5093374;28;20031;-86
2023/10/18 08:44:38;;;;;;;14.15;6.68;;;8.30;99.90;;;;;;5093139;28;20474;-87
2023/10/18 08:49:53;;;;;;;14.65;6.65;;;8.40;99.90;;;;;;5091166;28;20051;-87
2023/10/18 08:52:20;;;;;;;12.60;5.90;;;8.40;99.90;;;;;;5074479;28;20275;-87
2023/10/18 08:54:53;;;;;;;15.10;6.95;;;8.50;99.90;;;;;;5074630;28;20478;-87
2023/10/18 08:57:35;;;;;;;12.50;6.30;;;8.50;99.90;;;;;;5093131;28;20101;-88
2023/10/18 09:02:51;;;;;;;16.98;14.68;;;8.70;99.90;;;;;;5097833;28;20048;-87
2023/10/18 09:05:22;;;;;;;14.05;6.35;;;8.80;99.90;;;;;;5086259;28;20042;-87
2023/10/18 09:07:51;;;;;;;11.82;5.30;;;8.90;99.90;;;;;;5095116;28;20048;-88
2023/10/18 09:16:01;;;;;;;13.65;6.50;;;9.00;99.90;;;;;;5100714;28;20100;-87
2023/10/18 09:18:30;;;;;;;12.27;5.78;;;9.10;99.90;;;;;;5079918;28;20039;-88
2023/10/18 09:21:07;;;;;;;12.10;5.60;;;9.10;99.90;;;;;;5080641;28;20064;-87
2023/10/18 09:23:33;;;;;;;13.30;6.28;;;9.20;99.90;;;;;;5097298;28;20095;-87
2023/10/18 09:28:36;;;;;;;13.73;7.10;;;9.20;99.90;;;;;;5097477;28;20047;-87
2023/10/18 09:31:11;;;;;;;15.88;6.57;;;9.30;99.90;;;;;;5097289;28;20040;-88
2023/10/18 09:33:40;;;;;;;14.38;6.15;;;9.40;99.90;;;;;;5097306;28;20082;-88
2023/10/18 09:36:20;;;;;;;14.18;6.93;;;9.40;99.90;;;;;;5089955;27;20035;-88
2023/10/18 09:38:50;;;;;;;11.93;5.45;;;9.50;99.90;;;;;;5090036;27;20043;-88
2023/10/18 09:41:16;;;;;;;13.82;6.72;;;9.50;99.90;;;;;;5097520;28;20100;-87
2023/10/18 09:43:42;;;;;;;16.00;7.05;;;9.60;99.90;;;;;;5080347;28;20035;-87
2023/10/18 09:46:08;;;;;;;12.13;5.93;;;9.70;99.90;;;;;;5105552;28;20514;-88
2023/10/18 09:48:41;;;;;;;12.50;6.00;;;9.70;99.90;;;;;;5080255;28;20118;-88
2023/10/18 09:51:08;;;;;;;13.35;6.40;;;9.80;99.90;;;;;;5097284;28;20046;-87
2023/10/18 09:53:41;;;;;;;15.07;6.75;;;9.90;99.90;;;;;;5096878;28;20119;-88
2023/10/18 09:56:09;;;;;;;14.75;7.05;;;10.00;99.90;;;;;;5103342;28;20053;-87
2023/10/18 09:58:41;;;;;;;12.65;6.25;;;10.00;99.90;;;;;;5081688;28;20075;-88
2023/10/18 10:01:25;;;;;;;14.37;7.27;;;10.10;99.90;;;;;;5081969;28;20042;-88
2023/10/18 10:03:56;;;;;;;13.05;5.65;;;10.20;99.90;;;;;;5096508;28;20044;-88
2023/10/18 10:06:26;;;;;;;14.10;5.95;;;10.20;99.90;;;;;;5079100;28;20032;-88
2023/10/18 10:11:52;;;;;;;13.20;6.57;;;10.30;99.90;;;;;;5040861;28;20044;-88
2023/10/18 10:14:21;;;;;;;14.88;7.55;;;10.30;99.90;;;;;;5104403;28;20646;-88
2023/10/18 10:17:18;;;;;;;12.82;5.90;;;10.40;99.90;;;;;;5096707;28;20513;-89
2023/10/18 10:19:52;;;;;;;13.48;6.60;;;10.40;99.90;;;;;;5079309;28;20100;-88
2023/10/18 10:22:32;;;;;;;13.00;5.82;;;10.50;99.90;;;;;;5078717;28;20113;-88
2023/10/18 10:25:04;;;;;;;11.93;6.15;;;10.50;99.90;;;;;;5078824;28;20039;-88
2023/10/18 10:30:19;;;;;;;11.73;5.53;;;10.60;99.90;;;;;;5095686;28;20047;-88
2023/10/18 10:32:52;;;;;;;11.98;6.20;;;10.60;99.90;;;;;;5079359;28;20044;-87
2023/10/18 10:35:24;;;;;;;14.23;11.93;;;10.70;99.90;;;;;;5104939;28;20089;-88
2023/10/18 10:37:52;;;;;;;16.10;7.28;;;10.80;99.90;;;;;;5084009;28;20490;-88
2023/10/18 10:43:11;;;;;;;10.68;5.40;;;10.90;99.90;;;;;;5096144;28;20127;-88
2023/10/18 10:48:16;;;;;;;14.55;6.55;;;11.00;99.90;;;;;;5095709;28;20039;-89
2023/10/18 10:50:53;;;;;;;13.80;5.60;;;11.00;99.90;;;;;;5078718;28;20556;-88
2023/10/18 10:53:43;;;;;;;12.68;5.53;;;11.10;99.90;;;;;;5094446;28;20047;-88
2023/10/18 10:56:18;;;;;;;12.13;6.25;;;11.10;99.90;;;;;;5094178;28;20043;-89
2023/10/18 10:59:09;;;;;;;13.38;5.85;;;11.20;99.90;;;;;;5078176;28;20043;-89
2023/10/18 11:01:43;;;;;;;11.05;5.38;;;11.20;99.90;;;;;;5078715;28;20046;-89
2023/10/18 11:04:49;;;;;;;11.05;5.00;;;11.20;99.90;;;;;;5078623;28;20035;-89
2023/10/18 11:07:27;;;;;;;11.50;5.32;;;11.30;99.90;;;;;;5075396;27;20091;-89
2023/10/18 11:10:14;;;;;;;13.18;5.97;;;11.40;99.90;;;;;;5081799;27;20035;-89
2023/10/18 11:12:39;;;;;;;10.00;4.38;;;11.40;99.90;;;;;;5105159;27;20039;-90
2023/10/18 11:15:16;;;;;;;13.30;6.38;;;11.40;99.90;;;;;;5106014;27;20295;-88
2023/10/18 11:17:45;;;;;;;11.27;4.72;;;11.50;99.90;;;;;;5073078;28;20039;-89
2023/10/18 11:20:30;;;;;;;12.48;6.38;;;11.50;99.90;;;;;;5089001;27;20039;-87
2023/10/18 11:22:56;;;;;;;13.18;6.22;;;11.60;99.90;;;;;;5076705;28;20406;-89
2023/10/18 11:25:30;;;;;;;12.10;5.53;;;11.70;99.90;;;;;;5094129;28;20032;-88
2023/10/18 11:28:10;;;;;;;12.40;5.75;;;11.70;99.90;;;;;;5084631;27;20035;-89
2023/10/18 11:30:37;;;;;;;11.30;5.70;;;11.80;99.90;;;;;;5079893;27;20043;-89
2023/10/18 11:33:03;;;;;;;11.70;4.78;;;11.90;99.90;;;;;;5108043;28;20031;-89
2023/10/18 11:35:48;;;;;;;12.95;6.00;;;12.00;99.90;;;;;;5081776;28;20726;-90
2023/10/18 11:38:14;;;;;;;11.70;5.93;;;12.10;99.90;;;;;;5083659;28;20039;-89
2023/10/18 11:40:43;;;;;;;18.23;5.40;;;12.10;99.90;;;;;;5092586;28;20047;-89
2023/10/18 11:43:10;;;;;;;11.85;5.50;;;12.20;99.90;;;;;;5090262;28;20039;-90
2023/10/18 11:45:37;;;;;;;11.52;4.97;;;12.20;99.90;;;;;;5075478;28;20079;-90
2023/10/18 11:48:09;;;;;;;12.40;6.43;;;12.30;99.90;;;;;;5075616;28;20088;-89
2023/10/18 11:50:41;;;;;;;13.02;5.45;;;12.30;99.90;;;;;;5077215;28;20044;-89
2023/10/18 11:53:20;;;;;;;11.00;5.35;;;12.40;99.90;;;;;;5076940;28;20047;-88
2023/10/18 11:55:58;;;;;;;12.98;9.88;;;12.40;99.90;;;;;;5077959;28;20050;-90
2023/10/18 11:58:26;;;;;;;13.13;9.70;;;12.50;99.90;;;;;;5078162;28;20040;-90
2023/10/18 12:01:01;;;;;;;9.82;4.75;;;12.60;99.90;;;;;;5094677;28;20044;-91
2023/10/18 12:03:27;;;;;;;9.82;4.47;;;12.60;99.90;;;;;;5077724;28;20490;-91
2023/10/18 12:05:57;;;;;;;10.27;4.97;;;12.60;99.90;;;;;;5094610;28;20039;-91
2023/10/18 12:08:24;;;;;;;12.02;8.68;;;12.60;99.90;;;;;;5103250;28;20040;-89
2023/10/18 12:10:50;;;;;;;12.02;5.18;;;12.70;99.90;;;;;;5086627;28;20118;-90
2023/10/18 12:13:20;;;;;;;13.25;9.68;;;12.70;99.90;;;;;;5086163;28;20036;-90
2023/10/18 12:15:45;;;;;;;10.40;4.88;;;12.90;99.90;;;;;;5078604;28;20035;-89
2023/10/18 12:18:14;;;;;;;10.30;5.25;;;12.90;99.90;;;;;;5077956;28;20034;-90
2023/10/18 12:20:43;;;;;;;11.45;5.05;;;12.90;99.90;;;;;;5078640;28;20046;-91
2023/10/18 12:23:10;;;;;;;10.07;4.82;;;12.90;99.90;;;;;;5077059;28;20092;-90
2023/10/18 12:25:42;;;;;;;10.63;4.95;;;12.90;99.90;;;;;;5079682;28;20036;-90
2023/10/18 12:28:27;;;;;;;12.43;9.13;;;12.90;99.90;;;;;;5089468;28;20405;-89
2023/10/18 12:30:55;;;;;;;9.88;4.50;;;13.00;99.90;;;;;;5093194;28;20040;-89
2023/10/18 12:33:26;;;;;;;10.23;4.72;;;13.10;99.90;;;;;;5077419;28;20031;-89
2023/10/18 12:35:56;;;;;;;10.88;5.47;;;13.10;99.90;;;;;;5098796;28;20058;-90
2023/10/18 12:38:31;;;;;;;10.63;5.13;;;13.10;99.90;;;;;;5107585;28;20039;-88
2023/10/18 12:40:59;;;;;;;11.10;5.43;;;13.20;99.90;;;;;;5111613;28;20036;-90
2023/10/18 12:43:25;;;;;;;12.20;5.60;;;13.30;99.90;;;;;;5071462;28;20084;-90
2023/10/18 12:45:51;;;;;;;11.55;6.05;;;13.50;99.90;;;;;;5070399;28;20044;-90
2023/10/18 12:48:23;;;;;;;16.23;9.30;;;13.70;99.90;;;;;;5099350;28;20038;-89
2023/10/18 12:50:53;;;;;;;12.80;9.82;;;14.00;97.70;;;;;;5117658;28;20043;-90
2023/10/18 12:55:57;;;;;;;11.20;4.93;;;14.60;96.70;;;;;;5107435;28;20051;-91
2023/10/18 12:58:31;;;;;;;13.13;9.05;;;14.70;95.60;;;;;;5106684;28;20046;-92
2023/10/18 13:01:06;;;;;;;10.07;5.50;;;15.00;92.70;;;;;;5106748;28;20071;-92
2023/10/18 13:03:38;;;;;;;11.20;6.15;;;15.10;92.90;;;;;;5090541;28;20118;-91
2023/10/18 13:06:15;;;;;;;11.60;8.38;;;15.30;93.00;;;;;;5086880;28;20035;-92
2023/10/18 13:08:53;;;;;;;11.27;8.23;;;15.90;90.80;;;;;;5081090;28;20039;-92
2023/10/18 13:11:44;;;;;;;10.68;5.88;;;16.70;87.60;;;;;;5105877;28;20052;-92
2023/10/18 13:14:05;;;;;;;10.68;8.40;;;17.30;86.30;;;;;;5097687;28;20516;-92
2023/10/18 13:16:31;;;;;;;12.23;6.53;;;17.90;78.30;;;;;;5106369;28;20043;-91
2023/10/18 13:18:57;;;;;;;12.10;8.45;;;18.50;78.70;;;;;;5084463;28;20032;-91
2023/10/18 13:21:27;;;;;;;13.05;8.45;;;19.20;75.20;;;;;;5080671;28;20402;-91
2023/10/18 13:23:56;;;;;;;11.77;8.27;;;19.70;72.50;;;;;;5080409;28;20032;-92
2023/10/18 13:26:27;;;;;;;12.20;7.60;;;20.20;71.10;;;;;;5106044;28;20118;-92
2023/10/18 13:28:59;;;;;;;11.40;7.80;;;20.50;68.70;;;;;;5094129;28;20048;-92
2023/10/18 13:31:31;;;;;;;12.30;8.02;;;20.80;65.90;;;;;;5089210;28;20094;-92
2023/10/18 13:33:58;;;;;;;11.65;8.40;;;20.60;65.20;;;;;;5106196;28;20036;-92
2023/10/18 13:36:24;;;;;;;11.23;7.90;;;20.30;64.50;;;;;;5096952;28;20441;-92
2023/10/18 13:38:50;;;;;;;11.45;8.13;;;19.80;64.60;;;;;;5078296;28;20044;-92
2023/10/18 13:41:17;;;;;;;10.82;8.23;;;19.40;65.70;;;;;;5103694;28;20046;-92
2023/10/18 13:43:43;;;;;;;13.88;8.88;;;18.90;65.80;;;;;;5080510;28;20035;-92
2023/10/18 13:46:17;;;;;;;10.45;8.07;;;18.60;66.10;;;;;;5081365;28;20039;-91
2023/10/18 13:48:43;;;;;;;11.77;7.78;;;18.30;66.60;;;;;;5116876;28;20043;-93
2023/10/18 13:51:10;;;;;;;12.32;8.27;;;18.00;67.70;;;;;;5102451;28;20032;-92
2023/10/18 13:53:36;;;;;;;11.07;7.68;;;17.90;68.60;;;;;;5100689;28;20043;-93
2023/10/18 13:56:03;;;;;;;11.32;8.32;;;17.70;68.50;;;;;;5105728;28;20514;-91